Time;durP1;ratioP1;P1;durP2;ratioP2;P2;SDS_P1;SDS_P2;PMS_P1;PMS_P2;Temp;Humidity;BMP_temperature;BMP_pressure;BME280_temperature;BME280_humidity;BME280_pressure;Samples;Min_cycle;Max_cycle;Signal;HPM_P1;HPM_P2
2024/03/09 00:00:40;;;;;;;45.00;26.20;;;;;;;3.73;75.33;98151.25;5036338;28;20092;-75
2024/03/09 00:03:07;;;;;;;46.80;26.38;;;;;;;3.81;74.53;98152.81;5040083;28;20458;-77
2024/03/09 00:05:33;;;;;;;46.65;26.75;;;;;;;3.40;75.66;98152.69;5040697;28;20029;-76
2024/03/09 00:08:01;;;;;;;46.17;28.48;;;;;;;3.10;76.17;98133.34;5037486;28;20040;-76
2024/03/09 00:10:28;;;;;;;48.22;27.65;;;;;;;3.12;76.95;98144.47;5016351;28;20056;-75
2024/03/09 00:12:54;;;;;;;42.95;25.15;;;;;;;3.07;77.37;98131.13;5030181;28;20101;-76
2024/03/09 00:15:23;;;;;;;44.88;26.42;;;;;;;3.12;77.34;98136.56;5049843;28;20032;-76
2024/03/09 00:17:51;;;;;;;46.17;27.00;;;;;;;3.08;77.32;98132.75;5042078;28;20029;-76
2024/03/09 00:20:26;;;;;;;48.40;27.08;;;;;;;2.69;78.61;98144.44;5020855;28;20097;-76
2024/03/09 00:22:52;;;;;;;47.95;26.38;;;;;;;2.92;78.77;98142.00;5023087;28;20123;-76
2024/03/09 00:25:20;;;;;;;57.17;27.15;;;;;;;2.40;79.98;98145.91;5038149;28;20486;-75
2024/03/09 00:27:46;;;;;;;56.60;28.10;;;;;;;2.32;81.42;98158.47;5017257;28;20041;-76
2024/03/09 00:30:17;;;;;;;55.22;29.30;;;;;;;1.98;81.24;98151.81;5023187;28;20155;-76
2024/03/09 00:32:43;;;;;;;54.40;30.67;;;;;;;2.35;81.53;98153.63;5036357;28;20031;-76
2024/03/09 00:35:09;;;;;;;44.88;26.83;;;;;;;2.50;80.97;98151.47;5038112;28;20123;-76
2024/03/09 00:37:35;;;;;;;50.65;28.63;;;;;;;2.22;80.28;98148.44;5040702;28;20111;-75
2024/03/09 00:40:04;;;;;;;41.95;24.27;;;;;;;2.49;80.16;98135.91;5040683;28;20036;-76
2024/03/09 00:42:29;;;;;;;50.85;27.08;;;;;;;2.84;79.46;98137.03;5040502;28;20024;-76
2024/03/09 00:44:54;;;;;;;42.17;25.65;;;;;;;2.51;79.28;98133.84;5043525;28;20044;-76
2024/03/09 00:47:20;;;;;;;54.03;27.90;;;;;;;2.44;79.31;98131.28;5036693;28;20040;-76
2024/03/09 00:49:47;;;;;;;46.00;26.65;;;;;;;2.94;79.28;98122.34;5022337;28;20063;-76
2024/03/09 00:52:13;;;;;;;41.97;25.13;;;;;;;2.93;78.27;98120.72;5032802;28;20033;-76
2024/03/09 00:54:38;;;;;;;51.60;27.27;;;;;;;2.88;76.96;98117.13;5044002;28;20371;-75
2024/03/09 00:57:04;;;;;;;45.95;25.77;;;;;;;3.24;76.99;98113.69;5035098;28;20497;-76
2024/03/09 00:59:30;;;;;;;49.22;26.55;;;;;;;2.45;77.96;98111.00;5040358;28;20021;-76
2024/03/09 01:02:00;;;;;;;51.17;28.23;;;;;;;2.95;78.00;98100.22;5015193;28;20037;-76
2024/03/09 01:04:25;;;;;;;52.97;27.83;;;;;;;2.41;78.13;98091.38;5040456;28;20025;-76
2024/03/09 01:06:51;;;;;;;47.45;27.33;;;;;;;2.86;77.80;98098.09;5035585;28;20995;-76
2024/03/09 01:09:16;;;;;;;48.67;27.65;;;;;;;3.20;77.17;98096.72;5034412;28;20129;-76
2024/03/09 01:11:41;;;;;;;44.70;25.25;;;;;;;3.40;76.40;98086.75;5022648;28;20032;-76
2024/03/09 01:14:07;;;;;;;44.60;27.00;;;;;;;3.53;75.81;98081.31;5044011;28;21835;-75
2024/03/09 01:16:33;;;;;;;46.95;26.83;;;;;;;3.47;75.18;98084.84;5036119;28;20028;-75
2024/03/09 01:18:58;;;;;;;45.75;25.73;;;;;;;2.84;76.76;98076.44;5043998;28;20087;-76
2024/03/09 01:21:24;;;;;;;44.97;25.38;;;;;;;2.17;79.91;98074.56;5035710;28;20030;-76
2024/03/09 01:23:50;;;;;;;50.25;27.83;;;;;;;2.39;78.74;98073.16;5037099;28;20017;-76
2024/03/09 01:26:15;;;;;;;45.58;27.17;;;;;;;2.03;81.42;98079.09;5033978;28;20025;-75
2024/03/09 01:28:41;;;;;;;54.83;29.83;;;;;;;1.80;81.85;98067.53;5044312;28;20037;-76
2024/03/09 01:31:12;;;;;;;51.20;30.02;;;;;;;1.43;83.09;98053.38;5046055;28;20178;-76
2024/03/09 01:33:38;;;;;;;50.63;27.45;;;;;;;2.11;81.31;98054.38;5036834;28;20037;-76
2024/03/09 01:36:04;;;;;;;52.38;29.48;;;;;;;2.29;79.46;98060.47;5039274;28;20035;-76
2024/03/09 01:38:29;;;;;;;53.28;29.77;;;;;;;1.89;81.18;98045.22;5039198;28;20532;-76
2024/03/09 01:40:54;;;;;;;49.00;27.95;;;;;;;1.91;82.11;98061.59;5035761;28;20094;-76
2024/03/09 01:43:20;;;;;;;58.38;31.63;;;;;;;1.42;82.54;98052.56;5004368;28;20041;-76
2024/03/09 01:45:46;;;;;;;55.90;29.83;;;;;;;1.77;84.03;98045.06;5024191;28;20064;-75
2024/03/09 01:48:21;;;;;;;57.55;30.20;;;;;;;2.08;81.65;98062.69;5043844;28;20032;-75
2024/03/09 01:50:46;;;;;;;55.47;28.35;;;;;;;2.35;80.87;98050.94;5007540;28;20116;-76
2024/03/09 01:53:13;;;;;;;51.10;28.20;;;;;;;2.95;78.69;98049.31;5036644;28;20116;-76
2024/03/09 01:55:41;;;;;;;46.42;25.20;;;;;;;3.12;77.64;98049.56;5037901;28;20524;-76
2024/03/09 01:58:07;;;;;;;46.35;26.80;;;;;;;3.11;76.94;98038.19;5038408;28;20112;-75
2024/03/09 02:00:35;;;;;;;47.53;26.95;;;;;;;2.87;77.35;98026.72;5041679;28;20116;-75
2024/03/09 02:03:00;;;;;;;45.22;26.15;;;;;;;2.95;77.47;98026.41;5034189;28;20033;-75
2024/03/09 02:05:26;;;;;;;51.58;27.98;;;;;;;3.10;76.56;98030.53;5038114;28;20024;-75
2024/03/09 02:07:52;;;;;;;47.20;27.17;;;;;;;2.45;78.40;98026.72;5036460;28;20087;-75
2024/03/09 02:10:18;;;;;;;48.08;28.30;;;;;;;2.24;78.78;98028.75;5035452;28;20033;-75
2024/03/09 02:12:44;;;;;;;45.13;25.73;;;;;;;2.55;79.64;98024.41;5028008;28;20658;-75
2024/03/09 02:15:16;;;;;;;51.97;28.85;;;;;;;2.18;80.36;98005.91;5039628;28;20086;-75
2024/03/09 02:17:41;;;;;;;52.22;28.52;;;;;;;2.47;79.28;98014.19;5037938;28;20029;-75
2024/03/09 02:20:11;;;;;;;49.40;25.17;;;;;;;2.84;78.18;98013.97;5038170;28;20032;-75
2024/03/09 02:22:41;;;;;;;48.45;27.92;;;;;;;2.91;76.80;98012.06;5033498;28;20478;-75
2024/03/09 02:25:06;;;;;;;48.13;27.65;;;;;;;3.28;76.15;98015.47;5042723;28;20045;-75
2024/03/09 02:27:32;;;;;;;50.25;27.45;;;;;;;2.88;76.12;97951.88;5038994;28;20025;-76
2024/03/09 02:29:57;;;;;;;45.92;25.23;;;;;;;2.80;76.61;98007.53;5037422;28;20394;-75
2024/03/09 02:32:23;;;;;;;50.35;26.80;;;;;;;3.08;76.56;97979.84;5036274;28;20509;-76
2024/03/09 02:34:48;;;;;;;48.78;26.10;;;;;;;2.88;76.36;97996.69;5039740;28;20110;-75
2024/03/09 02:37:15;;;;;;;45.40;26.88;;;;;;;3.10;75.95;97990.97;5033960;28;20397;-76
2024/03/09 02:39:41;;;;;;;50.70;26.48;;;;;;;3.08;76.03;97983.28;5035490;28;20130;-75
2024/03/09 02:42:08;;;;;;;48.53;27.13;;;;;;;3.22;75.28;97991.81;5039255;28;20099;-76
2024/03/09 02:44:34;;;;;;;47.65;26.63;;;;;;;3.16;75.33;97993.53;5020765;28;20393;-75
2024/03/09 02:46:59;;;;;;;46.28;24.20;;;;;;;3.09;75.75;97990.16;5036427;28;20029;-76
2024/03/09 02:49:24;;;;;;;46.30;25.67;;;;;;;3.15;75.49;97980.56;5039425;28;20036;-76
2024/03/09 02:51:50;;;;;;;46.50;25.65;;;;;;;3.22;75.59;97983.91;5033950;28;20037;-76
2024/03/09 02:54:15;;;;;;;46.53;25.80;;;;;;;3.21;75.12;97984.97;5038076;28;20028;-75
2024/03/09 02:56:41;;;;;;;48.85;26.15;;;;;;;2.93;75.54;97980.22;5036926;28;20061;-76
2024/03/09 02:59:06;;;;;;;46.83;24.88;;;;;;;2.90;76.03;97978.84;5037759;28;20029;-75
2024/03/09 03:01:32;;;;;;;54.05;28.17;;;;;;;2.83;76.38;97957.03;5027617;28;20029;-76
2024/03/09 03:04:01;;;;;;;47.38;26.05;;;;;;;3.07;75.76;97960.59;5037519;28;20025;-76
2024/03/09 03:06:28;;;;;;;53.33;26.42;;;;;;;3.12;75.30;97970.47;5038754;28;20053;-76
2024/03/09 03:09:05;;;;;;;40.95;23.80;;;;;;;2.75;76.02;97964.44;5035852;28;20026;-75
2024/03/09 03:11:32;;;;;;;44.90;25.77;;;;;;;2.95;75.57;97972.88;5018326;28;20033;-76
2024/03/09 03:13:59;;;;;;;46.42;26.30;;;;;;;2.98;75.97;97969.81;5035147;28;20036;-76
2024/03/09 03:16:29;;;;;;;45.72;24.40;;;;;;;3.03;75.63;97962.06;5028774;28;20058;-76
2024/03/09 03:18:55;;;;;;;52.30;28.55;;;;;;;2.75;76.05;97974.97;5035741;28;20064;-76
2024/03/09 03:21:21;;;;;;;45.22;25.92;;;;;;;2.91;75.73;97969.91;5021790;28;20526;-75
2024/03/09 03:23:49;;;;;;;52.45;27.85;;;;;;;2.86;75.72;97968.97;5017785;28;20126;-76
2024/03/09 03:26:16;;;;;;;51.08;28.95;;;;;;;2.72;75.77;97973.59;5034456;28;20033;-77
2024/03/09 03:28:46;;;;;;;52.40;28.40;;;;;;;2.94;76.03;97973.94;5035200;28;20029;-76
2024/03/09 03:31:12;;;;;;;50.95;26.40;;;;;;;2.87;75.58;97963.47;5027777;28;20037;-77
2024/03/09 03:33:39;;;;;;;48.33;26.38;;;;;;;2.98;76.03;97970.63;5038220;28;20087;-76
2024/03/09 03:36:13;;;;;;;51.10;27.02;;;;;;;2.92;75.57;97968.91;5041473;28;20032;-76
2024/03/09 03:38:41;;;;;;;49.00;27.27;;;;;;;2.70;76.28;97957.19;5040193;28;20120;-76
2024/03/09 03:41:08;;;;;;;48.65;27.92;;;;;;;2.92;75.74;97973.34;5034342;28;21624;-76
2024/03/09 03:43:34;;;;;;;49.67;27.83;;;;;;;2.98;75.32;97960.09;5033747;28;20028;-77
2024/03/09 03:46:04;;;;;;;57.47;28.00;;;;;;;2.75;75.64;97975.75;5035183;28;20493;-77
2024/03/09 03:48:29;;;;;;;49.20;27.27;;;;;;;2.82;75.70;97971.22;5035080;28;20041;-76
2024/03/09 03:50:58;;;;;;;51.55;26.50;;;;;;;2.87;75.57;97968.75;5034059;28;20017;-76
2024/03/09 03:53:25;;;;;;;45.17;27.15;;;;;;;2.86;75.85;97963.69;5039989;28;20496;-76
2024/03/09 03:55:51;;;;;;;47.60;26.95;;;;;;;2.97;75.35;97970.88;5035739;28;20035;-76
2024/03/09 03:58:20;;;;;;;52.88;26.52;;;;;;;2.98;74.79;97960.09;5037772;28;20038;-76
2024/03/09 04:00:49;;;;;;;45.47;26.08;;;;;;;2.97;74.67;97958.47;5041458;28;20036;-75
2024/03/09 04:03:16;;;;;;;51.40;27.23;;;;;;;2.87;74.62;97945.03;5037435;28;20025;-77
2024/03/09 04:05:43;;;;;;;45.08;27.27;;;;;;;2.80;75.09;97961.94;5045080;28;20032;-76
2024/03/09 04:08:08;;;;;;;44.88;26.35;;;;;;;2.77;75.24;97962.38;5038944;28;20029;-76
2024/03/09 04:10:33;;;;;;;50.97;26.30;;;;;;;2.66;75.42;97963.94;5040863;28;20025;-76
2024/03/09 04:12:59;;;;;;;50.90;27.50;;;;;;;2.74;75.02;97960.19;5034702;28;20529;-75
2024/03/09 04:15:26;;;;;;;48.55;26.77;;;;;;;2.75;75.19;97967.84;5041462;28;20075;-76
2024/03/09 04:17:52;;;;;;;52.70;28.52;;;;;;;2.80;74.97;97956.66;5033258;28;20103;-76
2024/03/09 04:20:17;;;;;;;48.17;28.08;;;;;;;2.74;74.49;97947.00;5044179;28;20120;-76
2024/03/09 04:22:45;;;;;;;51.10;27.58;;;;;;;2.73;74.71;97954.09;5040524;28;20033;-76
2024/03/09 04:25:11;;;;;;;51.78;28.10;;;;;;;2.63;74.76;97945.91;5036274;28;21939;-75
2024/03/09 04:27:37;;;;;;;52.03;26.60;;;;;;;2.57;75.17;97930.19;5036421;28;20033;-75
2024/03/09 04:30:04;;;;;;;52.92;28.10;;;;;;;2.68;74.71;97932.91;5025444;28;20033;-75
2024/03/09 04:32:30;;;;;;;52.20;26.83;;;;;;;2.69;74.80;97939.75;5034002;28;20128;-76
2024/03/09 04:34:57;;;;;;;51.08;28.48;;;;;;;2.58;74.66;97919.41;5034735;28;20029;-75
2024/03/09 04:37:25;;;;;;;50.10;28.05;;;;;;;2.69;74.78;97933.69;5033709;28;20033;-76
2024/03/09 04:39:58;;;;;;;47.17;26.77;;;;;;;2.53;75.02;97923.75;5040067;28;20048;-76
2024/03/09 04:42:25;;;;;;;47.28;26.10;;;;;;;2.46;75.38;97929.09;5020751;28;20099;-75
2024/03/09 04:44:53;;;;;;;54.00;28.70;;;;;;;2.50;75.42;97918.91;5034106;28;20029;-75
2024/03/09 04:47:19;;;;;;;50.78;26.27;;;;;;;2.38;75.68;97931.22;5004717;28;20147;-75
2024/03/09 04:49:47;;;;;;;50.78;26.58;;;;;;;2.37;76.05;97932.22;5045250;28;20028;-75
2024/03/09 04:52:13;;;;;;;49.80;28.08;;;;;;;2.39;76.00;97922.28;5039944;28;20036;-76
2024/03/09 04:54:43;;;;;;;50.25;27.08;;;;;;;2.50;75.83;97914.47;5032460;28;20044;-76
2024/03/09 04:57:17;;;;;;;55.17;29.58;;;;;;;2.48;75.40;97916.50;5028896;28;20497;-77
2024/03/09 04:59:45;;;;;;;52.80;27.38;;;;;;;2.20;76.48;97929.38;5032313;28;20049;-76
2024/03/09 05:02:11;;;;;;;51.92;27.58;;;;;;;2.16;76.29;97921.09;5031867;28;20112;-76
2024/03/09 05:04:36;;;;;;;47.33;27.08;;;;;;;2.26;76.32;97915.31;5033835;28;20612;-75
2024/03/09 05:07:03;;;;;;;48.85;26.10;;;;;;;2.38;75.77;97920.69;5037240;28;20029;-76
2024/03/09 05:09:29;;;;;;;45.60;27.48;;;;;;;2.42;75.66;97914.75;5037208;28;20029;-76
2024/03/09 05:11:55;;;;;;;53.30;27.02;;;;;;;2.44;75.48;97914.53;5038884;28;20477;-76
2024/03/09 05:14:21;;;;;;;54.50;27.67;;;;;;;2.48;75.43;97911.25;5042163;28;20033;-76
2024/03/09 05:16:47;;;;;;;51.97;27.83;;;;;;;2.49;75.02;97906.78;5035456;28;20110;-76
2024/03/09 05:19:12;;;;;;;52.95;29.42;;;;;;;2.48;75.22;97897.25;5037600;28;20117;-76
2024/03/09 05:21:38;;;;;;;51.95;28.17;;;;;;;2.52;74.82;97903.69;5034527;28;20029;-76
2024/03/09 05:24:05;;;;;;;52.65;26.52;;;;;;;2.52;74.71;97903.69;5032461;28;20060;-76
2024/03/09 05:26:32;;;;;;;51.75;28.15;;;;;;;2.20;76.37;97901.22;5034891;28;20064;-76
2024/03/09 05:29:01;;;;;;;47.42;26.60;;;;;;;2.49;74.92;97896.25;5024108;28;20397;-77
2024/03/09 05:31:27;;;;;;;51.78;27.23;;;;;;;2.45;74.50;97884.53;5036590;28;20617;-76
2024/03/09 05:33:53;;;;;;;50.15;26.73;;;;;;;2.35;74.85;97885.06;5034108;28;20037;-77
2024/03/09 05:36:19;;;;;;;54.60;29.67;;;;;;;2.25;74.65;97879.47;5036468;28;20091;-77
2024/03/09 05:38:48;;;;;;;49.67;27.02;;;;;;;2.36;74.79;97889.28;5038031;28;20026;-76
2024/03/09 05:41:13;;;;;;;50.80;25.67;;;;;;;2.43;74.43;97882.13;5037614;28;20033;-76
2024/03/09 05:43:39;;;;;;;56.88;28.42;;;;;;;2.41;74.22;97884.19;5035394;28;20060;-76
2024/03/09 05:46:07;;;;;;;49.53;27.52;;;;;;;2.30;74.47;97887.53;5037572;28;20040;-76
2024/03/09 05:48:32;;;;;;;47.97;26.88;;;;;;;2.26;74.56;97891.63;5036100;28;20110;-76
2024/03/09 05:50:58;;;;;;;55.03;27.08;;;;;;;2.22;74.71;97890.47;5036644;28;20553;-76
2024/03/09 05:53:26;;;;;;;48.13;27.73;;;;;;;2.22;74.70;97895.72;5013803;28;20466;-76
2024/03/09 05:55:52;;;;;;;52.05;28.23;;;;;;;2.14;74.58;97888.91;5033894;28;20041;-75
2024/03/09 05:58:20;;;;;;;50.67;27.42;;;;;;;2.21;74.84;97888.84;5042633;28;20021;-76
2024/03/09 06:00:46;;;;;;;54.90;27.60;;;;;;;2.17;74.57;97885.84;5035647;28;20037;-75
2024/03/09 06:03:12;;;;;;;45.85;26.02;;;;;;;2.20;74.24;97893.34;5038703;28;20417;-76
2024/03/09 06:05:38;;;;;;;57.30;28.40;;;;;;;2.20;74.13;97888.06;5042128;28;20033;-76
2024/03/09 06:08:03;;;;;;;52.10;28.35;;;;;;;2.09;74.48;97882.72;5038695;28;20029;-76
2024/03/09 06:10:29;;;;;;;56.45;28.63;;;;;;;2.18;74.49;97887.44;5041837;28;20037;-76
2024/03/09 06:12:54;;;;;;;52.55;26.25;;;;;;;2.05;74.32;97886.81;5045893;28;20069;-76
2024/03/09 06:15:24;;;;;;;46.78;25.92;;;;;;;2.07;74.64;97890.84;5042840;28;20517;-75
2024/03/09 06:17:53;;;;;;;50.05;26.08;;;;;;;1.68;75.89;97866.72;5046884;28;20031;-77
2024/03/09 06:20:19;;;;;;;50.30;27.08;;;;;;;2.02;75.11;97880.16;5044559;28;20020;-77
2024/03/09 06:22:48;;;;;;;47.40;25.40;;;;;;;1.15;76.31;97877.63;5024060;28;20071;-76
2024/03/09 06:25:25;;;;;;;52.88;26.90;;;;;;;1.19;79.79;97883.25;5043982;28;20030;-76
2024/03/09 06:27:55;;;;;;;52.13;25.95;;;;;;;1.98;76.32;97873.72;5041843;28;20045;-76
2024/03/09 06:30:23;;;;;;;55.35;27.98;;;;;;;2.03;76.20;97871.22;5036738;28;20505;-76
2024/03/09 06:32:49;;;;;;;60.15;29.98;;;;;;;2.15;75.88;97884.47;5044980;28;20120;-76
2024/03/09 06:35:19;;;;;;;49.83;26.65;;;;;;;2.17;75.74;97879.78;5040410;28;20033;-76
2024/03/09 06:37:56;;;;;;;53.50;27.40;;;;;;;2.24;75.31;97878.69;5024297;28;20082;-76
2024/03/09 06:40:22;;;;;;;52.92;27.48;;;;;;;1.34;77.33;97883.75;5037396;28;20029;-77
2024/03/09 06:42:50;;;;;;;61.45;30.20;;;;;;;1.29;78.97;97876.50;5044704;28;20033;-77
2024/03/09 06:45:17;;;;;;;48.70;25.80;;;;;;;2.14;76.47;97888.13;5028626;28;20107;-76
2024/03/09 06:47:43;;;;;;;50.53;25.95;;;;;;;2.28;75.89;97881.69;5042366;28;20032;-76
2024/03/09 06:50:09;;;;;;;51.58;26.20;;;;;;;2.29;75.63;97872.78;5036441;28;20112;-78
2024/03/09 06:52:35;;;;;;;49.35;26.90;;;;;;;2.37;75.70;97882.19;5042158;28;20071;-76
2024/03/09 06:55:00;;;;;;;52.47;26.80;;;;;;;2.30;75.69;97882.28;5035761;28;20061;-76
2024/03/09 06:57:26;;;;;;;45.47;25.85;;;;;;;2.29;75.50;97875.41;5035114;28;20040;-76
2024/03/09 06:59:51;;;;;;;51.30;27.33;;;;;;;2.13;76.24;97883.88;5039727;28;20367;-76
2024/03/09 07:02:17;;;;;;;49.83;26.83;;;;;;;2.28;75.95;97879.06;5036858;28;20505;-76
2024/03/09 07:04:44;;;;;;;51.70;26.52;;;;;;;2.19;76.09;97886.44;5044715;28;20060;-76
2024/03/09 07:07:10;;;;;;;48.03;25.38;;;;;;;2.21;76.18;97876.50;5038522;28;20087;-76
2024/03/09 07:09:37;;;;;;;54.13;26.80;;;;;;;2.28;76.19;97876.44;5036017;28;20033;-75
2024/03/09 07:12:02;;;;;;;48.08;25.85;;;;;;;2.29;76.63;97880.69;5035064;28;20033;-76
2024/03/09 07:14:28;;;;;;;43.30;23.02;;;;;;;2.20;76.45;97867.00;5026076;28;20112;-77
2024/03/09 07:16:53;;;;;;;47.65;26.20;;;;;;;2.24;76.71;97859.47;5038409;28;20028;-76
2024/03/09 07:19:20;;;;;;;48.70;25.45;;;;;;;2.26;77.06;97868.75;5045452;28;20033;-76
2024/03/09 07:21:46;;;;;;;45.75;25.73;;;;;;;2.25;77.06;97863.69;5046806;28;20355;-76
2024/03/09 07:24:11;;;;;;;50.28;26.90;;;;;;;2.36;76.91;97862.97;5038309;28;20025;-76
2024/03/09 07:26:36;;;;;;;47.85;26.20;;;;;;;2.33;77.06;97866.06;5034561;28;20065;-76
2024/03/09 07:29:03;;;;;;;49.10;25.27;;;;;;;2.16;78.23;97860.53;5033020;28;20040;-76
2024/03/09 07:31:28;;;;;;;50.63;26.70;;;;;;;2.36;77.17;97849.00;5040692;28;20508;-76
2024/03/09 07:33:54;;;;;;;44.35;25.15;;;;;;;2.62;76.65;97851.31;5038314;28;20037;-76
2024/03/09 07:36:20;;;;;;;56.92;27.13;;;;;;;2.47;76.67;97854.31;5020268;28;20029;-76
2024/03/09 07:38:48;;;;;;;62.35;27.55;;;;;;;2.48;77.19;97848.03;5034058;28;20521;-75
2024/03/09 07:41:16;;;;;;;52.90;26.70;;;;;;;2.34;77.73;97851.84;5036975;28;20024;-75
2024/03/09 07:43:42;;;;;;;50.05;26.65;;;;;;;2.65;76.97;97854.31;5042133;28;20497;-76
2024/03/09 07:46:07;;;;;;;46.95;24.25;;;;;;;2.49;77.34;97857.53;5037609;28;20058;-76
2024/03/09 07:48:34;;;;;;;47.38;24.70;;;;;;;2.72;76.61;97860.31;5045713;28;20035;-76
2024/03/09 07:50:59;;;;;;;44.92;26.48;;;;;;;2.57;77.59;97854.63;5042588;28;20481;-76
2024/03/09 07:53:25;;;;;;;52.13;26.23;;;;;;;2.82;76.82;97855.28;5041641;28;20032;-76
2024/03/09 07:55:50;;;;;;;46.78;27.55;;;;;;;2.20;79.67;97847.78;5040877;28;20032;-76
2024/03/09 07:58:15;;;;;;;59.03;27.75;;;;;;;2.22;79.64;97840.47;5036994;28;20017;-76
2024/03/09 08:00:43;;;;;;;48.70;26.15;;;;;;;2.68;78.53;97843.34;5039510;28;20040;-76
2024/03/09 08:03:08;;;;;;;48.40;27.00;;;;;;;2.80;77.28;97835.47;5041462;28;20035;-76
2024/03/09 08:05:34;;;;;;;52.03;26.58;;;;;;;2.59;78.06;97828.06;5036215;28;20088;-76
2024/03/09 08:08:02;;;;;;;53.10;27.88;;;;;;;2.45;79.66;97840.56;5038817;28;20029;-76
2024/03/09 08:10:28;;;;;;;49.33;26.92;;;;;;;2.63;79.45;97842.38;5038519;28;20119;-76
2024/03/09 08:12:56;;;;;;;54.35;27.58;;;;;;;2.36;80.93;97836.63;5041837;28;20064;-76
2024/03/09 08:15:22;;;;;;;47.97;26.42;;;;;;;2.18;81.85;97831.41;5033667;28;20025;-75
2024/03/09 08:17:48;;;;;;;52.83;27.48;;;;;;;2.58;80.20;97832.50;5043597;28;20375;-75
2024/03/09 08:20:20;;;;;;;46.63;25.98;;;;;;;2.40;81.55;97829.94;5041806;28;20104;-76
2024/03/09 08:22:46;;;;;;;48.17;26.05;;;;;;;2.43;81.28;97834.72;5045889;28;20409;-76
2024/03/09 08:25:15;;;;;;;50.20;26.52;;;;;;;2.09;83.49;97832.72;5036913;28;20033;-76
2024/03/09 08:27:43;;;;;;;48.58;25.83;;;;;;;2.36;82.09;97826.09;5045242;28;20409;-76
2024/03/09 08:30:15;;;;;;;51.63;27.50;;;;;;;2.54;81.43;97822.63;5036744;28;20033;-76
2024/03/09 08:32:44;;;;;;;45.42;24.33;;;;;;;2.68;80.79;97817.00;5040692;28;20503;-75
2024/03/09 08:35:11;;;;;;;45.00;26.35;;;;;;;2.57;80.71;97809.03;5036195;28;20037;-76
2024/03/09 08:37:38;;;;;;;44.58;26.63;;;;;;;2.19;82.46;97830.34;5035256;28;20058;-75
2024/03/09 08:40:06;;;;;;;48.67;25.27;;;;;;;2.70;81.42;97824.66;5039140;28;20040;-74
2024/03/09 08:42:31;;;;;;;49.97;26.30;;;;;;;2.93;80.32;97822.91;5029129;28;20029;-75
2024/03/09 08:44:58;;;;;;;46.90;24.75;;;;;;;2.84;80.11;97824.25;5035981;28;20048;-76
2024/03/09 08:47:24;;;;;;;42.67;23.58;;;;;;;2.71;81.10;97811.25;5038783;28;20037;-75
2024/03/09 08:49:49;;;;;;;41.35;24.05;;;;;;;3.00;79.75;97809.63;5036063;28;20041;-75
2024/03/09 08:52:15;;;;;;;45.78;26.58;;;;;;;2.83;80.27;97817.38;5036005;28;20033;-76
2024/03/09 08:54:42;;;;;;;41.25;24.23;;;;;;;2.90;80.04;97802.28;5037772;28;20406;-77
2024/03/09 08:57:08;;;;;;;48.92;27.38;;;;;;;3.02;79.71;97810.22;5042359;28;20020;-76
2024/03/09 08:59:37;;;;;;;48.83;29.08;;;;;;;2.48;82.00;97820.91;5040023;28;20033;-76
2024/03/09 09:02:02;;;;;;;49.28;27.60;;;;;;;2.45;83.27;97822.16;5021553;28;20033;-76
2024/03/09 09:04:41;;;;;;;47.35;25.42;;;;;;;3.23;80.99;97816.81;5036954;28;21636;-77
2024/03/09 09:07:06;;;;;;;41.15;25.60;;;;;;;3.25;80.63;97809.47;5030807;28;20589;-77
2024/03/09 09:09:31;;;;;;;44.25;24.52;;;;;;;3.20;80.66;97812.78;5033330;28;20162;-76
2024/03/09 09:11:58;;;;;;;44.83;24.98;;;;;;;3.38;80.86;97799.50;5037533;28;20390;-77
2024/03/09 09:14:24;;;;;;;45.75;24.30;;;;;;;3.31;80.44;97801.44;5034585;28;20060;-76
2024/03/09 09:16:49;;;;;;;58.00;25.55;;;;;;;3.80;78.41;97802.81;5038515;28;20474;-77
2024/03/09 09:19:14;;;;;;;38.15;22.38;;;;;;;3.62;78.94;97800.31;5032748;28;20029;-76
2024/03/09 09:21:40;;;;;;;37.90;22.27;;;;;;;3.69;77.86;97793.09;5033519;28;20552;-76
2024/03/09 09:24:06;;;;;;;45.38;23.95;;;;;;;3.78;78.39;97791.69;5038750;28;20029;-76
2024/03/09 09:26:33;;;;;;;46.00;22.00;;;;;;;4.01;77.46;97785.59;5036365;28;20087;-75
2024/03/09 09:28:59;;;;;;;40.55;22.10;;;;;;;4.21;77.49;97786.81;5039430;28;20025;-75
2024/03/09 09:31:25;;;;;;;38.67;22.25;;;;;;;4.17;77.34;97774.31;5040403;28;20033;-75
2024/03/09 09:33:51;;;;;;;38.83;22.73;;;;;;;4.13;77.39;97773.97;5040582;28;20429;-76
2024/03/09 09:36:18;;;;;;;36.55;21.35;;;;;;;4.08;77.72;97789.72;5037956;28;20103;-76
2024/03/09 09:38:45;;;;;;;35.88;23.23;;;;;;;3.93;77.15;97783.31;5039186;28;20029;-75
2024/03/09 09:41:12;;;;;;;45.60;23.65;;;;;;;4.18;76.81;97776.72;5042730;28;20456;-76
2024/03/09 09:43:38;;;;;;;37.08;20.65;;;;;;;4.20;77.04;97776.47;5037832;28;20394;-76
2024/03/09 09:46:04;;;;;;;32.10;20.75;;;;;;;4.33;76.81;97768.28;5040686;28;20057;-76
2024/03/09 09:48:32;;;;;;;35.88;20.85;;;;;;;4.68;76.61;97760.22;5039365;28;21126;-75
2024/03/09 09:51:01;;;;;;;40.25;23.05;;;;;;;4.56;76.10;97769.00;5040706;28;20037;-75
2024/03/09 09:53:27;;;;;;;38.70;22.05;;;;;;;4.42;75.56;97770.31;5045402;28;20032;-76
2024/03/09 09:55:52;;;;;;;39.70;23.25;;;;;;;4.60;76.14;97771.16;5041883;28;20393;-76
2024/03/09 09:58:18;;;;;;;38.70;22.17;;;;;;;4.78;75.44;97765.69;5035305;28;20033;-76
2024/03/09 10:00:43;;;;;;;34.80;22.45;;;;;;;4.67;75.65;97758.63;5040302;28;20060;-76
2024/03/09 10:03:10;;;;;;;42.58;22.58;;;;;;;4.94;76.31;97752.50;5038598;28;20053;-76
2024/03/09 10:05:35;;;;;;;41.88;22.45;;;;;;;4.74;75.53;97754.00;5039643;28;20033;-75
2024/03/09 10:08:04;;;;;;;38.92;23.48;;;;;;;4.62;75.11;97750.59;5039699;28;20036;-74
2024/03/09 10:10:36;;;;;;;38.70;22.80;;;;;;;4.81;75.97;97744.06;5048365;28;20036;-76
2024/03/09 10:13:05;;;;;;;36.17;22.20;;;;;;;4.83;74.37;97750.72;5038159;28;20029;-75
2024/03/09 10:15:32;;;;;;;37.95;23.02;;;;;;;4.72;75.60;97734.94;5039895;28;20421;-76
2024/03/09 10:17:57;;;;;;;36.70;22.48;;;;;;;4.77;75.87;97749.03;5045260;28;20061;-75
2024/03/09 10:20:24;;;;;;;36.50;21.50;;;;;;;4.79;74.96;97751.44;5036934;28;20048;-75
2024/03/09 10:22:49;;;;;;;35.72;20.52;;;;;;;4.90;75.20;97747.91;5037455;28;20036;-75
2024/03/09 10:25:26;;;;;;;40.22;22.85;;;;;;;5.01;74.66;97734.63;5038698;28;20025;-76
2024/03/09 10:28:00;;;;;;;34.70;21.20;;;;;;;5.07;74.56;97743.44;5040405;28;20041;-75
2024/03/09 10:30:26;;;;;;;40.70;21.75;;;;;;;5.43;75.60;97734.22;5038978;28;20500;-75
2024/03/09 10:32:54;;;;;;;33.42;21.52;;;;;;;5.32;74.04;97717.41;5041744;28;20041;-76
2024/03/09 10:35:23;;;;;;;32.47;20.98;;;;;;;5.47;74.54;97735.31;5044164;28;20071;-75
2024/03/09 10:37:57;;;;;;;35.20;20.35;;;;;;;5.43;72.72;97735.03;5043658;28;20078;-75
2024/03/09 10:40:25;;;;;;;36.45;21.48;;;;;;;5.58;74.39;97727.28;5053576;28;20021;-76
2024/03/09 10:42:52;;;;;;;33.83;21.83;;;;;;;5.62;73.42;97723.09;5060326;28;20029;-76
2024/03/09 10:45:20;;;;;;;32.15;20.92;;;;;;;5.77;73.32;97720.66;5063609;28;20048;-75
2024/03/09 10:47:53;;;;;;;29.40;17.73;;;;;;;5.74;71.08;97702.63;5035116;28;20039;-76
2024/03/09 10:50:29;;;;;;;27.00;18.00;;;;;;;5.83;71.88;97711.72;5039331;28;20028;-75
2024/03/09 10:53:01;;;;;;;27.60;17.85;;;;;;;6.10;72.20;97697.78;5042903;28;20060;-75
2024/03/09 10:55:43;;;;;;;32.88;20.67;;;;;;;6.25;72.40;97698.75;5039905;28;20029;-76
2024/03/09 10:58:15;;;;;;;33.35;18.27;;;;;;;6.20;72.03;97706.66;5044107;28;20486;-76
2024/03/09 11:00:42;;;;;;;34.35;18.95;;;;;;;6.09;70.33;97707.59;5038929;28;20035;-75
2024/03/09 11:03:10;;;;;;;31.15;20.38;;;;;;;6.19;70.30;97693.66;5036340;28;20044;-76
2024/03/09 11:05:37;;;;;;;29.42;18.13;;;;;;;6.40;70.43;97701.56;5021650;28;20036;-76
2024/03/09 11:08:04;;;;;;;29.05;17.83;;;;;;;6.59;71.06;97697.53;5040818;28;20454;-76
2024/03/09 11:10:31;;;;;;;28.67;18.30;;;;;;;6.38;67.38;97686.97;5039797;28;20559;-76
2024/03/09 11:12:56;;;;;;;29.83;18.27;;;;;;;6.35;68.30;97692.78;5017887;28;20041;-77
2024/03/09 11:15:30;;;;;;;27.83;17.30;;;;;;;6.84;70.63;97685.56;5044998;28;20120;-76
2024/03/09 11:17:56;;;;;;;27.00;18.00;;;;;;;6.96;69.94;97686.97;5043847;28;20386;-76
2024/03/09 11:20:22;;;;;;;27.58;18.27;;;;;;;6.80;68.78;97664.03;5038640;28;20033;-77
2024/03/09 11:22:47;;;;;;;28.90;18.17;;;;;;;7.16;68.84;97668.56;5044065;28;20516;-77